Terminal Aerodrome Forecast
Issued by NWS

Home | Current Version | Previous Version | Text Only | Print | Product List | Glossary On
Versions: 1 2 3 4 5 6 7 8 9 10 11 12 13 14 15 16 17
000
FTUS45 KBOI 032332
TAFJER
TAF
KJER 032332Z 0400/0424 24011KT P6SM BKN050
     FM040200 20007KT P6SM SCT050 BKN100
     FM041400 07008KT P6SM SCT040 OVC090
     FM042000 26010KT P6SM -SHRA SCT020 OVC035=

USA.gov is the U.S. government's official web portal to all federal, state and local government web resources and services.